createdAt,value
2023-03-25T00:00:07.152Z,1.02
2023-03-25T00:02:35.572Z,1.25
2023-03-25T00:05:03.978Z,0.80
2023-03-25T00:07:33.385Z,0.70
2023-03-25T00:10:01.313Z,0.82
2023-03-25T00:12:30.797Z,0.75
2023-03-25T00:14:58.646Z,0.80
2023-03-25T00:17:29.038Z,0.85
2023-03-25T00:19:57.526Z,0.90
2023-03-25T00:22:25.403Z,0.90
2023-03-25T00:24:55.992Z,0.93
2023-03-25T00:27:23.933Z,1.30
2023-03-25T00:29:52.317Z,1.30
2023-03-25T00:32:20.943Z,2.25
2023-03-25T00:34:48.821Z,1.17
2023-03-25T00:37:18.123Z,1.10
2023-03-25T00:39:46.130Z,1.17
2023-03-25T00:42:25.983Z,1.73
2023-03-25T00:44:54.136Z,1.65
2023-03-25T00:47:22.629Z,1.27
2023-03-25T00:49:51.652Z,1.88
2023-03-25T00:52:19.515Z,1.83
2023-03-25T00:54:47.545Z,1.70
2023-03-25T00:57:17.561Z,2.05
2023-03-25T00:59:45.450Z,1.42
2023-03-25T01:02:13.366Z,2.10
2023-03-25T01:04:42.458Z,1.50
2023-03-25T01:07:11.131Z,1.75
2023-03-25T01:09:41.474Z,1.60
2023-03-25T01:12:09.506Z,1.40
2023-03-25T01:14:38.868Z,1.30
2023-03-25T01:17:07.154Z,1.98
2023-03-25T01:19:35.094Z,1.80
2023-03-25T01:22:03.038Z,1.50
2023-03-25T01:24:31.396Z,1.50
2023-03-25T01:26:59.597Z,1.40
2023-03-25T01:29:27.556Z,1.27
2023-03-25T01:31:57.084Z,1.40
2023-03-25T01:34:25.492Z,1.27
2023-03-25T01:36:55.432Z,0.98
2023-03-25T01:44:05.888Z,1.00
2023-03-25T01:46:34.309Z,1.10
2023-03-25T01:49:07.713Z,1.33
2023-03-25T01:51:39.141Z,1.17
2023-03-25T01:54:08.289Z,1.70
2023-03-25T01:56:40.058Z,1.10
2023-03-25T01:59:10.191Z,2.38
2023-03-25T02:01:38.380Z,1.20
2023-03-25T02:04:12.030Z,1.40
2023-03-25T02:06:43.787Z,1.23
2023-03-25T02:09:13.387Z,1.40
2023-03-25T02:11:41.490Z,1.50
2023-03-25T02:14:12.474Z,3.38
2023-03-25T02:16:48.400Z,1.27
2023-03-25T02:19:53.135Z,1.10
2023-03-25T02:22:55.670Z,1.45
2023-03-25T02:25:54.910Z,1.52
2023-03-25T02:28:35.677Z,1.30
2023-03-25T02:31:18.425Z,1.45
2023-03-25T02:34:19.568Z,1.83
2023-03-25T02:37:26.479Z,1.48
2023-03-25T02:40:01.714Z,1.35
2023-03-25T02:42:35.826Z,1.35
2023-03-25T02:45:08.417Z,1.35
2023-03-25T02:47:38.760Z,2.38
2023-03-25T02:50:10.881Z,1.02
2023-03-25T02:52:42.126Z,1.02
2023-03-25T02:55:16.812Z,1.27
2023-03-25T02:57:48.019Z,0.80
2023-03-25T03:00:20.305Z,1.30
2023-03-25T03:02:59.351Z,1.00
2023-03-25T03:05:30.376Z,1.00
2023-03-25T03:08:19.016Z,1.20
2023-03-25T03:13:30.386Z,1.25
2023-03-25T03:16:07.539Z,0.80
2023-03-25T03:18:46.149Z,1.08
2023-03-25T03:21:23.125Z,0.70
2023-03-25T03:23:57.510Z,1.15
2023-03-25T03:26:35.310Z,0.70
2023-03-25T03:29:11.095Z,0.70
2023-03-25T03:31:48.429Z,0.70
2023-03-25T03:34:36.568Z,0.73
2023-03-25T03:37:05.810Z,0.60
2023-03-25T03:39:37.108Z,0.50
2023-03-25T03:42:16.424Z,0.80
2023-03-25T03:44:48.916Z,0.60
2023-03-25T03:47:20.071Z,0.70
2023-03-25T03:49:52.677Z,0.70
2023-03-25T03:52:26.398Z,0.70
2023-03-25T03:54:59.137Z,0.52
2023-03-25T03:57:31.790Z,1.00
2023-03-25T04:00:06.860Z,0.60
2023-03-25T04:02:39.724Z,0.40
2023-03-25T04:05:11.392Z,0.60
2023-03-25T04:07:43.660Z,0.60
2023-03-25T04:10:15.945Z,0.75
2023-03-25T04:12:48.612Z,0.60
2023-03-25T04:15:17.385Z,0.50
2023-03-25T04:17:48.012Z,0.75
2023-03-25T04:20:23.707Z,0.70
2023-03-25T04:22:52.272Z,0.80
2023-03-25T04:25:22.049Z,0.70
2023-03-25T04:27:53.841Z,0.95
2023-03-25T04:30:22.136Z,1.10
2023-03-25T04:32:51.581Z,0.80
2023-03-25T04:35:20.914Z,0.88
2023-03-25T04:37:49.799Z,0.93
2023-03-25T04:40:18.789Z,0.70
2023-03-25T04:42:47.326Z,1.23
2023-03-25T04:45:17.381Z,1.40
2023-03-25T04:47:47.536Z,1.10
2023-03-25T04:50:20.765Z,1.08
2023-03-25T04:52:48.720Z,1.30
2023-03-25T04:55:19.403Z,1.38
2023-03-25T04:57:48.018Z,1.17
2023-03-25T05:00:20.619Z,1.13
2023-03-25T05:02:50.804Z,1.10
2023-03-25T05:05:20.248Z,2.53
2023-03-25T05:07:49.655Z,1.50
2023-03-25T05:10:17.998Z,1.40
2023-03-25T05:12:46.002Z,1.45
2023-03-25T05:15:14.842Z,1.55
2023-03-25T05:17:44.422Z,1.10
2023-03-25T05:20:14.566Z,1.40
2023-03-25T05:22:43.193Z,2.17
2023-03-25T05:25:11.711Z,1.60
2023-03-25T05:27:39.977Z,1.25
2023-03-25T05:30:09.569Z,1.48
2023-03-25T05:32:41.063Z,1.50
2023-03-25T05:35:11.501Z,1.67
2023-03-25T05:37:39.351Z,1.00
2023-03-25T05:40:15.082Z,1.23
2023-03-25T05:42:46.933Z,1.27
2023-03-25T05:45:15.863Z,1.23
2023-03-25T05:47:44.344Z,1.50
2023-03-25T05:50:14.549Z,1.77
2023-03-25T05:52:42.605Z,1.50
2023-03-25T05:55:14.278Z,1.65
2023-03-25T05:57:42.855Z,1.90
2023-03-25T06:00:12.895Z,1.48
2023-03-25T06:02:43.230Z,1.90
2023-03-25T06:05:14.263Z,1.52
2023-03-25T06:07:43.621Z,2.03
2023-03-25T06:10:12.429Z,1.50
2023-03-25T06:12:45.576Z,1.52
2023-03-25T06:15:15.232Z,1.73
2023-03-25T06:17:46.460Z,1.30
2023-03-25T06:20:19.500Z,1.30
2023-03-25T06:22:47.560Z,1.50
2023-03-25T06:25:18.938Z,1.33
2023-03-25T06:27:48.398Z,1.42
2023-03-25T06:30:18.869Z,1.40
2023-03-25T06:32:50.528Z,1.60
2023-03-25T06:35:21.398Z,1.88
2023-03-25T06:37:50.461Z,1.55
2023-03-25T06:40:18.474Z,1.67
2023-03-25T06:42:46.486Z,1.20
2023-03-25T06:45:14.362Z,1.33
2023-03-25T06:47:42.250Z,2.38
2023-03-25T06:50:11.193Z,1.92
2023-03-25T06:52:40.393Z,1.70
2023-03-25T06:55:08.831Z,1.30
2023-03-25T06:57:36.793Z,1.30
2023-03-25T07:00:06.718Z,1.23
2023-03-25T07:02:34.640Z,1.40
2023-03-25T07:05:02.627Z,1.10
2023-03-25T07:07:30.496Z,1.20
2023-03-25T07:09:59.722Z,1.42
2023-03-25T07:12:27.530Z,1.10
2023-03-25T07:14:57.255Z,1.38
2023-03-25T07:17:25.350Z,1.15
2023-03-25T07:19:53.305Z,1.30
2023-03-25T07:22:21.113Z,1.13
2023-03-25T07:24:48.920Z,1.20
2023-03-25T07:27:18.100Z,1.08
2023-03-25T07:29:46.113Z,0.82
2023-03-25T07:32:13.969Z,0.70
2023-03-25T07:34:42.069Z,0.93
2023-03-25T07:37:09.934Z,0.88
2023-03-25T07:39:38.005Z,1.45
2023-03-25T07:42:07.245Z,0.57
2023-03-25T07:44:36.559Z,1.15
2023-03-25T07:47:04.631Z,0.70
2023-03-25T07:49:32.435Z,0.90
2023-03-25T07:52:00.258Z,0.93
2023-03-25T07:54:28.504Z,0.80
2023-03-25T07:56:56.406Z,0.70
2023-03-25T07:59:24.735Z,0.85
2023-03-25T08:01:54.096Z,0.50
2023-03-25T08:04:21.946Z,0.90
2023-03-25T08:06:49.854Z,0.57
2023-03-25T08:09:17.692Z,0.70
2023-03-25T08:11:46.061Z,0.50
2023-03-25T08:14:14.003Z,0.88
2023-03-25T08:16:42.085Z,0.50
2023-03-25T08:19:11.626Z,0.60
2023-03-25T08:21:39.482Z,0.77
2023-03-25T08:24:08.031Z,0.52
2023-03-25T08:26:36.227Z,0.80
2023-03-25T08:29:04.902Z,0.70
2023-03-25T08:31:33.739Z,0.65
2023-03-25T08:34:02.585Z,0.93
2023-03-25T08:36:32.309Z,0.93
2023-03-25T08:39:01.370Z,0.70
2023-03-25T08:41:29.204Z,0.60
2023-03-25T08:43:57.046Z,1.17
2023-03-25T08:46:24.986Z,0.82
2023-03-25T08:48:53.543Z,0.90
2023-03-25T08:51:21.650Z,1.20
2023-03-25T08:53:50.865Z,0.80
2023-03-25T08:56:18.716Z,1.02
2023-03-25T08:58:46.757Z,0.95
2023-03-25T09:01:14.668Z,0.80
2023-03-25T09:03:42.554Z,1.10
2023-03-25T09:06:10.891Z,2.15
2023-03-25T09:08:38.814Z,0.88
2023-03-25T09:11:08.379Z,0.98
2023-03-25T09:13:36.260Z,1.30
2023-03-25T09:16:04.354Z,1.40
2023-03-25T09:18:33.011Z,1.20
2023-03-25T09:21:01.825Z,1.27
2023-03-25T09:23:29.914Z,1.67
2023-03-25T09:26:01.761Z,1.25
2023-03-25T09:28:31.366Z,0.80
2023-03-25T09:30:59.311Z,0.98
2023-03-25T09:33:27.442Z,1.20
2023-03-25T09:35:55.449Z,1.00
2023-03-25T09:38:23.498Z,0.85
2023-03-25T09:40:51.357Z,0.93
2023-03-25T09:43:30.550Z,0.98
2023-03-25T09:46:00.892Z,0.80
2023-03-25T09:48:33.917Z,1.02
2023-03-25T09:51:05.716Z,1.00
2023-03-25T09:53:39.342Z,0.95
2023-03-25T09:56:12.760Z,0.93
2023-03-25T09:58:43.967Z,1.48
2023-03-25T10:01:33.049Z,0.80
2023-03-25T10:04:16.516Z,1.55
2023-03-25T10:06:53.915Z,0.95
2023-03-25T10:09:33.424Z,1.33
2023-03-25T10:12:06.986Z,0.85
2023-03-25T10:14:46.635Z,1.10
2023-03-25T10:17:22.997Z,1.10
2023-03-25T10:19:59.900Z,0.90
2023-03-25T10:22:32.397Z,0.75
2023-03-25T10:25:03.708Z,0.70
2023-03-25T10:27:38.447Z,0.50
2023-03-25T10:30:14.110Z,0.60
2023-03-25T10:32:46.632Z,0.60
2023-03-25T10:35:20.148Z,0.40
2023-03-25T10:37:51.664Z,0.60
2023-03-25T10:40:27.221Z,0.40
2023-03-25T10:43:14.469Z,0.60
2023-03-25T10:45:43.910Z,0.68
2023-03-25T10:48:16.295Z,0.50
2023-03-25T10:50:44.971Z,1.05
2023-03-25T10:53:21.903Z,0.68
2023-03-25T10:55:53.474Z,0.70
2023-03-25T10:58:21.517Z,1.00
2023-03-25T11:00:49.655Z,0.88
2023-03-25T11:03:24.639Z,0.60
2023-03-25T11:05:54.082Z,0.70
2023-03-25T11:08:25.061Z,0.57
2023-03-25T11:10:57.652Z,0.77
2023-03-25T11:13:27.918Z,0.60
2023-03-25T11:15:58.534Z,0.70
2023-03-25T11:18:31.208Z,0.70
2023-03-25T11:21:03.679Z,0.60
2023-03-25T11:23:34.265Z,0.68
2023-03-25T11:26:07.139Z,0.80
2023-03-25T11:28:39.871Z,0.47
2023-03-25T11:31:16.719Z,0.60
2023-03-25T11:33:47.781Z,0.60
2023-03-25T11:36:26.048Z,0.68
2023-03-25T11:41:29.109Z,1.15
2023-03-25T11:43:57.015Z,0.82
2023-03-25T11:46:25.432Z,0.80
2023-03-25T11:48:54.910Z,0.60
2023-03-25T11:51:25.558Z,0.80
2023-03-25T11:53:59.682Z,0.98
2023-03-25T11:56:33.749Z,0.85
2023-03-25T11:59:03.097Z,0.68
2023-03-25T12:01:38.953Z,0.90
2023-03-25T12:04:12.780Z,0.82
2023-03-25T12:06:54.201Z,0.80
2023-03-25T12:09:22.327Z,1.00
2023-03-25T12:11:59.034Z,1.20
2023-03-25T12:14:36.668Z,0.82
2023-03-25T12:17:12.794Z,0.70
2023-03-25T12:19:54.332Z,1.00
2023-03-25T12:22:33.368Z,0.60
2023-03-25T12:25:12.533Z,0.60
2023-03-25T12:27:57.710Z,0.60
2023-03-25T12:30:37.793Z,0.60
2023-03-25T12:33:18.191Z,0.60
2023-03-25T12:35:55.581Z,0.70
2023-03-25T12:38:38.855Z,1.00
2023-03-25T12:41:21.357Z,0.50
2023-03-25T12:44:01.809Z,1.08
2023-03-25T12:46:51.162Z,0.70
2023-03-25T12:49:35.281Z,0.60
2023-03-25T12:52:10.205Z,1.00
2023-03-25T12:54:50.413Z,0.73
2023-03-25T12:57:31.753Z,0.75
2023-03-25T13:00:25.471Z,0.73
2023-03-25T13:03:35.977Z,0.82
2023-03-25T13:06:14.327Z,0.47
2023-03-25T13:08:48.340Z,0.47
2023-03-25T13:11:22.396Z,0.90
2023-03-25T13:13:53.533Z,0.90
2023-03-25T13:16:24.980Z,0.73
2023-03-25T13:19:01.278Z,1.10
2023-03-25T13:21:33.186Z,1.02
2023-03-25T13:24:07.178Z,0.95
2023-03-25T13:26:36.578Z,0.70
2023-03-25T13:29:06.842Z,0.70
2023-03-25T13:31:38.050Z,0.60
2023-03-25T13:34:20.481Z,0.85
2023-03-25T13:36:59.533Z,0.68
2023-03-25T13:39:35.036Z,0.70
2023-03-25T13:42:10.430Z,0.88
2023-03-25T13:44:41.681Z,0.85
2023-03-25T13:47:18.903Z,0.75
2023-03-25T13:49:51.122Z,0.83
2023-03-25T13:52:19.922Z,1.05
2023-03-25T13:54:53.801Z,0.80
2023-03-25T13:57:41.755Z,1.00
2023-03-25T14:00:27.498Z,0.90
2023-03-25T14:03:24.494Z,0.70
2023-03-25T14:06:19.524Z,1.30
2023-03-25T14:09:10.882Z,0.80
2023-03-25T14:11:46.246Z,0.90
2023-03-25T14:14:18.258Z,1.20
2023-03-25T14:16:51.387Z,1.77
2023-03-25T14:19:25.851Z,0.80
2023-03-25T14:21:54.109Z,1.00
2023-03-25T14:24:30.404Z,0.70
2023-03-25T14:27:03.741Z,1.35
2023-03-25T14:29:38.961Z,1.10
2023-03-25T14:32:25.800Z,0.80
2023-03-25T14:35:00.504Z,0.90
2023-03-25T14:37:31.055Z,0.75
2023-03-25T14:40:02.406Z,0.80
2023-03-25T14:42:42.429Z,1.23
2023-03-25T14:45:53.292Z,1.23
2023-03-25T14:48:31.470Z,0.88
2023-03-25T14:51:42.587Z,1.00
2023-03-25T14:54:37.810Z,0.88
2023-03-25T14:57:09.246Z,1.02
2023-03-25T14:59:43.715Z,0.98
2023-03-25T15:02:17.988Z,1.17
2023-03-25T15:04:52.200Z,0.90
2023-03-25T15:07:38.961Z,0.80
2023-03-25T15:10:08.602Z,0.88
2023-03-25T15:12:39.493Z,0.88
2023-03-25T15:15:27.552Z,1.17
2023-03-25T15:17:55.570Z,1.00
2023-03-25T15:20:31.707Z,0.80
2023-03-25T15:23:25.291Z,0.82
2023-03-25T15:25:56.788Z,1.13
2023-03-25T15:28:40.936Z,0.90
2023-03-25T15:31:26.755Z,1.52
2023-03-25T15:34:15.324Z,0.63
2023-03-25T15:36:58.919Z,0.68
2023-03-25T15:39:44.794Z,0.70
2023-03-25T15:42:38.986Z,0.77
2023-03-25T15:45:43.099Z,0.68
2023-03-25T15:48:36.664Z,1.00
2023-03-25T15:51:20.342Z,0.80
2023-03-25T15:54:00.664Z,0.70
2023-03-25T15:56:32.536Z,0.85
2023-03-25T15:59:05.794Z,1.20
2023-03-25T16:01:39.340Z,0.80
2023-03-25T16:04:20.739Z,1.08
2023-03-25T16:06:53.578Z,1.08
2023-03-25T16:09:28.368Z,0.82
2023-03-25T16:12:01.417Z,0.80
2023-03-25T16:14:31.401Z,1.33
2023-03-25T16:17:01.902Z,0.95
2023-03-25T16:19:36.295Z,1.05
2023-03-25T16:22:11.760Z,1.40
2023-03-25T16:24:40.726Z,1.10
2023-03-25T16:27:12.787Z,1.38
2023-03-25T16:29:41.310Z,1.33
2023-03-25T16:32:19.792Z,1.02
2023-03-25T16:34:49.344Z,1.75
2023-03-25T16:37:18.899Z,1.38
2023-03-25T16:39:52.420Z,1.33
2023-03-25T16:42:26.420Z,1.55
2023-03-25T16:44:54.937Z,1.30
2023-03-25T16:47:23.869Z,1.15
2023-03-25T16:49:56.131Z,1.20
2023-03-25T16:52:27.274Z,1.50
2023-03-25T16:55:41.546Z,1.20
2023-03-25T16:58:16.175Z,1.02
2023-03-25T17:00:44.365Z,1.25
2023-03-25T17:03:17.688Z,1.88
2023-03-25T17:05:56.717Z,1.55
2023-03-25T17:08:25.115Z,1.38
2023-03-25T17:10:56.334Z,1.27
2023-03-25T17:13:28.264Z,1.40
2023-03-25T17:15:56.572Z,1.27
2023-03-25T17:18:27.747Z,1.60
2023-03-25T17:21:00.223Z,1.00
2023-03-25T17:23:36.467Z,1.20
2023-03-25T17:26:08.174Z,1.55
2023-03-25T17:28:39.194Z,2.38
2023-03-25T17:31:27.748Z,2.33
2023-03-25T17:34:01.279Z,1.95
2023-03-25T17:36:32.219Z,1.20
2023-03-25T17:39:03.742Z,1.30
2023-03-25T17:41:37.661Z,1.50
2023-03-25T17:44:06.403Z,1.42
2023-03-25T17:46:35.889Z,1.58
2023-03-25T17:49:15.552Z,1.23
2023-03-25T17:51:45.628Z,1.48
2023-03-25T17:54:14.483Z,1.50
2023-03-25T17:56:42.947Z,1.42
2023-03-25T17:59:16.868Z,1.30
2023-03-25T18:01:46.176Z,1.23
2023-03-25T18:04:15.459Z,1.83
2023-03-25T18:06:45.294Z,1.55
2023-03-25T18:09:17.415Z,1.23
2023-03-25T18:11:46.510Z,2.28
2023-03-25T18:14:14.762Z,1.42
2023-03-25T18:16:42.975Z,1.83
2023-03-25T18:19:14.538Z,1.30
2023-03-25T18:21:44.020Z,1.23
2023-03-25T18:24:13.372Z,1.60
2023-03-25T18:26:42.100Z,1.40
2023-03-25T18:29:12.390Z,1.50
2023-03-25T18:31:40.544Z,2.17
2023-03-25T18:34:09.388Z,1.10
2023-03-25T18:36:38.587Z,1.50
2023-03-25T18:39:08.228Z,1.38
2023-03-25T18:41:36.126Z,1.35
2023-03-25T18:44:03.960Z,1.70
2023-03-25T18:46:31.813Z,1.45
2023-03-25T18:49:02.506Z,1.10
2023-03-25T18:51:31.181Z,1.40
2023-03-25T18:53:59.200Z,1.30
2023-03-25T18:56:28.408Z,1.40
2023-03-25T18:58:56.229Z,1.50
2023-03-25T19:01:25.108Z,1.90
2023-03-25T19:03:52.961Z,1.15
2023-03-25T19:06:21.065Z,1.63
2023-03-25T19:08:48.921Z,1.40
2023-03-25T19:11:21.532Z,2.30
2023-03-25T19:13:51.687Z,2.00
2023-03-25T19:16:20.782Z,1.63
2023-03-25T19:18:48.865Z,1.75
2023-03-25T19:21:18.618Z,1.70
2023-03-25T19:23:47.165Z,1.55
2023-03-25T19:26:15.656Z,1.33
2023-03-25T19:28:43.589Z,1.92
2023-03-25T19:31:16.217Z,1.50
2023-03-25T19:33:44.378Z,1.92
2023-03-25T19:36:15.561Z,1.95
2023-03-25T19:38:43.718Z,2.00
2023-03-25T19:41:13.962Z,1.70
2023-03-25T19:43:42.175Z,1.77
2023-03-25T19:46:10.076Z,1.77
2023-03-25T19:48:39.954Z,1.52
2023-03-25T19:51:07.756Z,1.15
2023-03-25T19:53:35.711Z,0.90
2023-03-25T19:56:04.119Z,0.88
2023-03-25T19:58:32.596Z,0.98
2023-03-25T20:01:00.485Z,1.00
2023-03-25T20:03:31.193Z,1.13
2023-03-25T20:06:02.210Z,1.30
2023-03-25T20:08:30.539Z,1.65
2023-03-25T20:10:59.594Z,1.10
2023-03-25T20:13:27.468Z,0.90
2023-03-25T20:15:55.910Z,1.45
2023-03-25T20:18:23.953Z,0.88
2023-03-25T20:20:51.799Z,0.70
2023-03-25T20:23:21.277Z,0.90
2023-03-25T20:25:51.311Z,0.80
2023-03-25T20:28:19.385Z,0.82
2023-03-25T20:30:47.375Z,1.10
2023-03-25T20:33:15.374Z,0.70
2023-03-25T20:35:43.885Z,0.95
2023-03-25T20:38:14.130Z,1.13
2023-03-25T20:40:44.937Z,0.65
2023-03-25T20:43:14.301Z,1.00
2023-03-25T20:45:43.041Z,1.10
2023-03-25T20:48:11.128Z,1.00
2023-03-25T20:50:39.158Z,0.98
2023-03-25T20:53:07.001Z,1.13
2023-03-25T20:55:35.015Z,1.15
2023-03-25T20:58:04.350Z,0.98
2023-03-25T21:00:32.233Z,1.35
2023-03-25T21:03:01.810Z,1.10
2023-03-25T21:05:29.811Z,1.20
2023-03-25T21:07:57.699Z,1.20
2023-03-25T21:10:25.540Z,1.30
2023-03-25T21:12:53.393Z,1.45
2023-03-25T21:15:22.795Z,1.38
2023-03-25T21:17:50.832Z,1.48
2023-03-25T21:20:21.820Z,1.77
2023-03-25T21:22:50.826Z,2.67
2023-03-25T21:25:19.015Z,1.73
2023-03-25T21:27:46.958Z,1.50
2023-03-25T21:30:16.069Z,1.65
2023-03-25T21:32:45.303Z,1.33
2023-03-25T21:35:13.744Z,1.30
2023-03-25T21:37:41.737Z,1.02
2023-03-25T21:40:12.468Z,1.33
2023-03-25T21:42:41.163Z,1.15
2023-03-25T21:45:11.756Z,1.48
2023-03-25T21:47:39.993Z,1.40
2023-03-25T21:50:11.112Z,1.50
2023-03-25T21:52:42.845Z,1.50
2023-03-25T21:55:11.190Z,1.85
2023-03-25T21:57:39.665Z,1.30
2023-03-25T22:00:08.986Z,1.60
2023-03-25T22:02:37.054Z,2.17
2023-03-25T22:05:05.513Z,1.67
2023-03-25T22:07:34.820Z,1.40
2023-03-25T22:10:04.474Z,1.70
2023-03-25T22:12:32.593Z,1.20
2023-03-25T22:15:00.643Z,1.20
2023-03-25T22:17:28.543Z,1.70
2023-03-25T22:19:56.771Z,1.70
2023-03-25T22:22:24.989Z,1.60
2023-03-25T22:24:54.284Z,1.77
2023-03-25T22:27:22.215Z,2.25
2023-03-25T22:29:50.069Z,1.77
2023-03-25T22:32:18.132Z,1.70
2023-03-25T22:34:46.204Z,1.88
2023-03-25T22:37:14.119Z,2.00
2023-03-25T22:39:42.059Z,1.30
2023-03-25T22:42:11.253Z,2.20
2023-03-25T22:44:39.258Z,1.50
2023-03-25T22:47:07.165Z,1.73
2023-03-25T22:49:35.912Z,1.58
2023-03-25T22:52:03.912Z,4.25
2023-03-25T22:54:31.875Z,1.20
2023-03-25T22:56:59.855Z,3.13
2023-03-25T22:59:29.131Z,3.75
2023-03-25T23:01:57.099Z,1.92
2023-03-25T23:04:25.002Z,2.40
2023-03-25T23:07:06.857Z,2.20
2023-03-25T23:09:42.105Z,1.50
2023-03-25T23:12:11.525Z,1.67
2023-03-25T23:14:42.563Z,2.40
2023-03-25T23:17:11.922Z,1.75
2023-03-25T23:19:40.252Z,2.33
2023-03-25T23:22:08.801Z,2.10
2023-03-25T23:24:37.799Z,1.92
2023-03-25T23:27:07.099Z,1.90
2023-03-25T23:29:36.562Z,1.75
2023-03-25T23:32:07.643Z,2.17
2023-03-25T23:34:36.092Z,3.00
2023-03-25T23:37:04.469Z,1.60
2023-03-25T23:39:32.300Z,1.63
2023-03-25T23:42:00.282Z,2.00
2023-03-25T23:44:28.443Z,2.65
2023-03-25T23:46:56.439Z,2.00
2023-03-25T23:49:25.678Z,2.08
2023-03-25T23:51:54.477Z,1.85
2023-03-25T23:54:22.304Z,2.42
2023-03-25T23:56:50.358Z,2.20
2023-03-25T23:59:18.639Z,1.88
